KRAL/RAL METAR and TAF weather

Enter ICAO airport designator
Station Type Date Time Source
KRAL METAR 2022/09/26 09:53 UTC NOAA

KRAL 260953Z AUTO 00000KT 10SM CLR 22/07 A2992 RMK AO2 SLP115 T02170072


Station Type Date Time Source
KRAL Decoded METAR 2022/09/26 09:53 UTC NOAA

RIVERSIDE MUNICIPAL AIRPORT , CA, United States (KRAL) 33-57N 117-27W 252M
Sep 26, 2022 - 05:53 AM EDT / 2022.09.26 0953 UTC
Wind: Calm:0
Visibility: 10 mile(s):0
Sky conditions: clear
Temperature: 71.1 F (21.7 C)
Dew Point: 45.0 F (7.2 C)
Relative Humidity: 39%
Pressure (altimeter): 29.92 in. Hg (1013 hPa)
ob: KRAL 260953Z AUTO 00000KT 10SM CLR 22/07 A2992 RMK AO2 SLP115 T02170072
cycle: 10

Station Type Date Time Source
KRAL TAF UTC NOAA

Error!

Example: see airport list